Time;durP1;ratioP1;P1;durP2;ratioP2;P2;SDS_P1;SDS_P2;PMS_P1;PMS_P2;Temp;Humidity;BMP_temperature;BMP_pressure;BME280_temperature;BME280_humidity;BME280_pressure;Samples;Min_cycle;Max_cycle;Signal;HPM_P1;HPM_P2
2023/01/24 00:00:51;;;;;;;7.80;6.25;;;16.20;49.20;;;;;;5071645;28;20209;-57
2023/01/24 00:03:20;;;;;;;7.63;6.40;;;16.20;49.10;;;;;;5072776;28;20214;-57
2023/01/24 00:05:49;;;;;;;7.20;6.35;;;16.10;48.90;;;;;;5077585;22;20298;-62
2023/01/24 00:08:18;;;;;;;7.05;6.20;;;16.10;48.80;;;;;;5033396;28;20207;-63
2023/01/24 00:10:45;;;;;;;6.72;5.85;;;16.10;48.70;;;;;;5031789;28;20219;-63
2023/01/24 00:13:13;;;;;;;6.65;5.82;;;16.10;48.50;;;;;;5033028;28;20216;-63
2023/01/24 00:15:40;;;;;;;7.00;6.30;;;16.10;48.60;;;;;;5033262;28;20184;-63
2023/01/24 00:18:07;;;;;;;7.65;6.10;;;16.00;48.30;;;;;;5031738;28;20199;-62
2023/01/24 00:20:36;;;;;;;6.63;5.93;;;16.00;47.90;;;;;;5033182;28;20192;-63
2023/01/24 00:23:03;;;;;;;8.88;6.13;;;16.00;48.20;;;;;;5031767;28;20231;-63
2023/01/24 00:25:32;;;;;;;7.18;6.10;;;16.00;48.00;;;;;;5032916;28;20184;-63
2023/01/24 00:27:59;;;;;;;6.45;5.65;;;16.00;47.90;;;;;;5033145;28;20189;-63
2023/01/24 00:30:26;;;;;;;7.32;6.07;;;16.00;47.60;;;;;;5031509;28;20218;-63
2023/01/24 00:32:53;;;;;;;6.75;6.05;;;15.90;47.60;;;;;;5031788;28;20632;-63
2023/01/24 00:35:21;;;;;;;7.15;6.45;;;15.90;47.90;;;;;;5032810;28;20724;-63
2023/01/24 00:37:49;;;;;;;6.90;5.78;;;15.90;47.40;;;;;;5032706;28;20184;-64
2023/01/24 00:40:17;;;;;;;6.68;5.97;;;15.90;47.70;;;;;;5031381;28;20329;-63
2023/01/24 00:42:44;;;;;;;6.80;6.10;;;15.90;47.70;;;;;;5031444;28;20203;-63
2023/01/24 00:45:12;;;;;;;6.47;5.38;;;15.80;47.60;;;;;;5032585;28;20271;-63
2023/01/24 00:47:39;;;;;;;6.22;5.63;;;15.80;47.60;;;;;;5031353;28;20345;-63
2023/01/24 00:50:07;;;;;;;6.53;5.35;;;15.80;47.80;;;;;;5031430;28;20192;-63
2023/01/24 00:52:34;;;;;;;6.75;5.75;;;15.80;47.60;;;;;;5032679;28;20210;-64
2023/01/24 00:55:03;;;;;;;6.22;5.60;;;15.80;47.90;;;;;;5032682;28;20192;-64
2023/01/24 00:57:30;;;;;;;6.60;5.88;;;15.80;47.70;;;;;;5031546;28;20204;-63
2023/01/24 00:59:58;;;;;;;7.55;6.30;;;15.80;47.50;;;;;;5032901;28;20192;-64
2023/01/24 01:02:25;;;;;;;6.22;5.63;;;15.80;47.20;;;;;;5031596;28;20188;-63
2023/01/24 01:04:52;;;;;;;7.18;6.00;;;15.80;47.20;;;;;;5032345;28;20208;-63
2023/01/24 01:07:22;;;;;;;7.07;6.28;;;15.80;46.90;;;;;;5031058;28;20204;-63
2023/01/24 01:09:49;;;;;;;6.75;6.05;;;15.80;46.90;;;;;;5031160;28;20200;-63
2023/01/24 01:12:18;;;;;;;6.53;5.82;;;15.80;46.90;;;;;;5031799;28;20567;-63
2023/01/24 01:14:45;;;;;;;6.38;5.75;;;15.80;46.80;;;;;;5032232;28;20212;-63
2023/01/24 01:17:12;;;;;;;6.25;5.65;;;15.70;46.80;;;;;;5038969;28;20201;-63
2023/01/24 01:19:39;;;;;;;6.82;6.13;;;15.70;46.60;;;;;;5040471;28;20274;-63
2023/01/24 01:22:08;;;;;;;6.35;5.75;;;15.80;46.60;;;;;;5038965;28;20192;-64
2023/01/24 01:24:35;;;;;;;7.53;6.43;;;15.70;46.30;;;;;;5038824;28;20238;-63
2023/01/24 01:27:02;;;;;;;6.63;5.93;;;15.70;46.20;;;;;;5038688;28;20199;-64
2023/01/24 01:29:31;;;;;;;6.45;5.70;;;15.70;46.50;;;;;;5040112;28;20223;-64
2023/01/24 01:31:58;;;;;;;6.93;5.75;;;15.70;46.20;;;;;;5038633;28;20769;-64
2023/01/24 01:34:25;;;;;;;7.13;6.43;;;15.70;46.40;;;;;;5038661;28;20315;-64
2023/01/24 01:36:53;;;;;;;6.38;5.78;;;15.70;46.40;;;;;;5039111;28;20203;-63
2023/01/24 01:39:19;;;;;;;7.00;5.90;;;15.60;46.40;;;;;;5038056;28;20196;-63
2023/01/24 01:41:47;;;;;;;6.63;5.75;;;15.60;46.30;;;;;;5040395;28;20208;-63
2023/01/24 01:47:12;;;;;;;7.43;5.95;;;15.60;46.20;;;;;;5040365;28;20182;-63
2023/01/24 01:49:39;;;;;;;7.32;6.60;;;15.60;46.20;;;;;;5038628;28;20196;-63
2023/01/24 01:52:06;;;;;;;7.15;6.20;;;15.60;46.20;;;;;;5038365;28;20228;-63
2023/01/24 01:54:35;;;;;;;7.82;6.22;;;15.60;46.10;;;;;;5038512;28;20227;-64
2023/01/24 01:57:03;;;;;;;7.57;6.78;;;15.60;46.40;;;;;;5038740;28;20586;-64
2023/01/24 01:59:33;;;;;;;7.55;6.40;;;15.60;46.20;;;;;;5039842;28;20572;-63
2023/01/24 02:02:00;;;;;;;7.47;6.78;;;15.60;46.10;;;;;;5038941;28;20196;-63
2023/01/24 02:04:31;;;;;;;7.43;6.60;;;15.60;46.10;;;;;;5038681;28;20227;-63
2023/01/24 02:07:01;;;;;;;7.00;6.30;;;15.60;46.10;;;;;;5038786;28;20307;-63
2023/01/24 02:09:32;;;;;;;6.65;5.97;;;15.60;46.10;;;;;;5039252;28;20200;-63
2023/01/24 02:12:01;;;;;;;7.03;6.32;;;15.50;45.90;;;;;;5043518;28;20212;-64
2023/01/24 02:17:13;;;;;;;6.68;6.07;;;15.50;46.10;;;;;;5051144;28;20192;-64
2023/01/24 02:19:48;;;;;;;6.78;6.07;;;15.50;46.10;;;;;;5041003;28;20271;-62
2023/01/24 02:22:18;;;;;;;7.40;6.65;;;15.50;46.00;;;;;;5045865;28;20183;-65
2023/01/24 02:24:49;;;;;;;7.20;6.18;;;15.50;46.60;;;;;;5054734;28;20212;-64
2023/01/24 02:27:18;;;;;;;7.10;6.40;;;15.50;45.70;;;;;;5038878;28;20572;-63
2023/01/24 02:29:56;;;;;;;7.10;6.40;;;15.50;45.90;;;;;;5038647;28;20196;-63
2023/01/24 02:32:27;;;;;;;7.03;6.32;;;15.50;46.00;;;;;;5038699;28;20218;-63
2023/01/24 02:34:54;;;;;;;6.97;6.28;;;15.50;46.00;;;;;;5038148;28;20265;-63
2023/01/24 02:37:24;;;;;;;7.50;6.05;;;15.40;46.10;;;;;;5039543;28;20211;-63
2023/01/24 02:39:54;;;;;;;7.88;7.10;;;15.40;46.00;;;;;;5037780;28;20666;-64
2023/01/24 02:42:25;;;;;;;6.65;6.05;;;15.40;46.00;;;;;;5035471;28;20227;-63
2023/01/24 02:44:57;;;;;;;7.80;6.53;;;15.40;45.80;;;;;;5035127;28;20254;-63
2023/01/24 02:47:25;;;;;;;7.13;6.43;;;15.40;46.00;;;;;;5034482;28;20200;-63
2023/01/24 02:49:53;;;;;;;7.15;6.45;;;15.40;46.10;;;;;;5034339;28;20202;-63
2023/01/24 02:55:05;;;;;;;7.25;6.53;;;15.40;46.20;;;;;;5035222;28;20181;-62
2023/01/24 03:00:18;;;;;;;6.70;6.00;;;15.40;46.20;;;;;;5035086;28;20513;-63
2023/01/24 03:02:46;;;;;;;6.65;6.05;;;15.30;46.10;;;;;;5033176;28;20202;-63
2023/01/24 03:05:13;;;;;;;7.00;6.30;;;15.30;46.20;;;;;;5035030;28;20193;-63
2023/01/24 03:07:44;;;;;;;7.60;6.28;;;15.30;46.20;;;;;;5034896;28;20562;-64
2023/01/24 03:10:15;;;;;;;7.20;6.50;;;15.30;46.30;;;;;;5033704;28;20192;-63
2023/01/24 03:34:48;;;;;;;7.15;6.45;;;15.30;46.30;;;;;;5033738;28;20219;-63
2023/01/24 03:39:53;;;;;;;7.03;6.38;;;15.30;46.30;;;;;;5032618;28;20188;-63
2023/01/24 03:40:11;;;;;;;6.75;6.07;;;15.30;46.40;;;;;;5033135;28;20192;-63
2023/01/24 03:42:46;;;;;;;6.93;6.22;;;15.20;46.30;;;;;;5035253;28;20665;-64
2023/01/24 03:45:17;;;;;;;7.78;6.70;;;15.20;46.40;;;;;;5032980;28;20269;-63
2023/01/24 03:47:54;;;;;;;6.68;6.05;;;15.20;46.10;;;;;;5032969;28;20200;-63
2023/01/24 03:53:09;;;;;;;6.70;6.03;;;15.20;46.20;;;;;;5032945;28;20307;-63
2023/01/24 03:55:36;;;;;;;7.20;6.47;;;15.20;46.20;;;;;;5032771;28;20199;-63
2023/01/24 03:58:03;;;;;;;6.53;5.93;;;15.20;46.20;;;;;;5032425;28;20226;-63
2023/01/24 04:00:33;;;;;;;6.97;6.22;;;15.20;46.40;;;;;;5032678;28;20678;-64
2023/01/24 04:03:06;;;;;;;6.63;6.00;;;15.20;46.30;;;;;;5032579;28;20226;-64
2023/01/24 04:05:34;;;;;;;6.32;5.70;;;15.10;46.30;;;;;;5032838;28;20212;-64
2023/01/24 04:08:01;;;;;;;6.40;5.80;;;15.10;46.30;;;;;;5032652;28;20199;-63
2023/01/24 04:10:29;;;;;;;6.80;6.10;;;15.10;46.20;;;;;;5032425;28;20307;-63
2023/01/24 04:12:56;;;;;;;6.18;5.57;;;15.10;46.40;;;;;;5032355;28;20220;-63
2023/01/24 04:15:25;;;;;;;6.50;5.90;;;15.10;47.30;;;;;;5032485;28;20218;-63
2023/01/24 04:18:04;;;;;;;6.10;5.50;;;15.10;46.70;;;;;;5032855;28;20269;-62
2023/01/24 04:20:32;;;;;;;6.78;6.13;;;15.10;46.70;;;;;;5032163;28;20641;-63
2023/01/24 04:23:02;;;;;;;6.25;5.65;;;15.10;46.80;;;;;;5032526;28;20222;-63
2023/01/24 04:25:30;;;;;;;6.32;5.72;;;15.10;46.90;;;;;;5032356;28;20196;-63
2023/01/24 04:27:58;;;;;;;6.28;5.68;;;15.10;46.80;;;;;;5032065;28;20196;-63
2023/01/24 04:30:28;;;;;;;6.53;5.93;;;15.20;46.80;;;;;;5032064;28;20196;-63
2023/01/24 04:32:58;;;;;;;6.85;6.25;;;15.20;46.80;;;;;;5032260;28;20748;-63
2023/01/24 04:35:29;;;;;;;5.97;5.38;;;15.20;46.40;;;;;;5032017;28;20204;-63
2023/01/24 04:38:00;;;;;;;6.90;5.97;;;15.20;46.60;;;;;;5032827;28;20200;-63
2023/01/24 04:40:58;;;;;;;6.13;5.53;;;15.30;46.70;;;;;;5028510;28;20228;-63
2023/01/24 04:43:25;;;;;;;6.45;5.85;;;15.30;46.70;;;;;;5032024;28;20307;-63
2023/01/24 04:45:56;;;;;;;6.50;5.90;;;15.40;46.60;;;;;;5032504;28;20199;-63
2023/01/24 04:48:25;;;;;;;5.88;5.28;;;15.30;46.50;;;;;;5032737;28;20204;-63
2023/01/24 04:50:58;;;;;;;6.78;6.07;;;15.40;46.60;;;;;;5034931;28;20203;-63
2023/01/24 04:53:25;;;;;;;6.00;5.50;;;15.40;46.60;;;;;;5036208;28;20228;-63
2023/01/24 04:55:55;;;;;;;6.75;6.07;;;15.40;46.20;;;;;;5036047;28;20677;-63
2023/01/24 04:58:22;;;;;;;7.25;6.55;;;15.40;46.20;;;;;;5037337;28;20192;-63
2023/01/24 05:00:49;;;;;;;6.78;6.05;;;15.40;46.20;;;;;;5035990;28;20246;-63
2023/01/24 05:03:17;;;;;;;6.95;6.25;;;15.50;46.10;;;;;;5035799;28;20656;-64
2023/01/24 05:05:44;;;;;;;6.72;6.13;;;15.50;46.20;;;;;;5036814;28;20249;-64
2023/01/24 05:08:12;;;;;;;7.05;6.28;;;15.50;46.20;;;;;;5035756;28;20279;-63
2023/01/24 05:10:40;;;;;;;7.20;6.50;;;15.50;45.90;;;;;;5035557;28;20708;-64
2023/01/24 05:13:07;;;;;;;6.43;5.82;;;15.50;45.90;;;;;;5036387;28;20228;-64
2023/01/24 05:15:34;;;;;;;6.75;6.05;;;15.50;45.90;;;;;;5035871;28;20224;-63
2023/01/24 05:18:02;;;;;;;6.93;6.32;;;15.50;46.50;;;;;;5035548;28;20200;-64
2023/01/24 05:20:30;;;;;;;6.55;5.95;;;15.50;45.80;;;;;;5035245;28;20220;-63
2023/01/24 05:22:57;;;;;;;6.78;6.18;;;15.50;45.70;;;;;;5035614;28;20243;-64
2023/01/24 05:25:27;;;;;;;6.68;5.97;;;15.50;45.50;;;;;;5035958;28;20196;-63
2023/01/24 05:27:54;;;;;;;7.63;6.82;;;15.50;45.50;;;;;;5036989;28;20580;-64
2023/01/24 05:30:22;;;;;;;7.00;6.30;;;15.50;45.50;;;;;;5038232;28;20256;-64
2023/01/24 05:32:51;;;;;;;6.93;6.22;;;15.50;45.70;;;;;;5040935;28;20212;-64
2023/01/24 05:35:20;;;;;;;6.90;6.22;;;15.50;45.60;;;;;;5037090;28;20196;-63
2023/01/24 05:37:48;;;;;;;7.50;6.80;;;15.50;45.60;;;;;;5035211;28;20231;-64
2023/01/24 05:40:16;;;;;;;6.90;6.20;;;15.50;45.40;;;;;;5035398;28;20227;-64
2023/01/24 05:42:45;;;;;;;6.88;6.18;;;15.60;45.40;;;;;;5035241;28;20242;-64
2023/01/24 05:45:12;;;;;;;6.72;5.88;;;15.60;45.50;;;;;;5035109;28;20670;-63
2023/01/24 05:47:40;;;;;;;7.00;6.30;;;15.60;45.40;;;;;;5035089;28;20196;-63
2023/01/24 05:50:11;;;;;;;7.10;6.40;;;15.60;45.50;;;;;;5034992;28;20200;-63
2023/01/24 05:52:37;;;;;;;6.85;6.15;;;15.60;45.40;;;;;;5034734;28;20303;-63
2023/01/24 05:55:06;;;;;;;7.18;6.47;;;15.60;45.20;;;;;;5035193;28;20266;-64
2023/01/24 05:57:39;;;;;;;7.47;6.45;;;15.60;45.30;;;;;;5035000;28;20283;-63
2023/01/24 06:00:25;;;;;;;6.93;6.22;;;15.60;45.10;;;;;;5035190;28;20199;-63
2023/01/24 06:03:27;;;;;;;6.57;5.88;;;15.60;45.30;;;;;;5020841;28;20216;-64
2023/01/24 06:05:56;;;;;;;6.53;5.82;;;15.60;45.30;;;;;;5035815;28;20214;-63
2023/01/24 06:08:24;;;;;;;6.97;6.28;;;15.60;45.30;;;;;;5034604;28;20200;-63
2023/01/24 06:10:52;;;;;;;8.45;6.95;;;15.60;45.30;;;;;;5034790;28;20625;-63
2023/01/24 06:13:21;;;;;;;7.72;6.60;;;15.60;45.30;;;;;;5034804;28;20224;-64
2023/01/24 06:15:49;;;;;;;7.40;6.65;;;15.60;45.20;;;;;;5034679;28;20199;-64
2023/01/24 06:18:17;;;;;;;6.65;5.97;;;15.70;46.10;;;;;;5034667;28;20196;-67
2023/01/24 06:20:46;;;;;;;6.57;5.97;;;15.70;45.40;;;;;;5035071;28;20202;-67
2023/01/24 06:23:20;;;;;;;7.13;6.43;;;15.70;45.90;;;;;;5035026;28;20246;-64
2023/01/24 06:25:48;;;;;;;7.85;7.05;;;15.70;46.20;;;;;;5035601;28;20234;-65
2023/01/24 06:28:16;;;;;;;6.80;6.10;;;15.80;46.60;;;;;;5035560;28;20192;-64
2023/01/24 06:30:45;;;;;;;6.88;6.18;;;15.80;46.80;;;;;;5034602;28;20745;-64
2023/01/24 06:33:23;;;;;;;8.15;6.47;;;15.80;46.70;;;;;;5034542;28;20224;-64
2023/01/24 06:36:08;;;;;;;7.50;6.80;;;15.80;46.60;;;;;;5035660;28;20541;-64
2023/01/24 06:38:36;;;;;;;7.00;6.30;;;15.90;46.50;;;;;;5036410;28;20176;-64
2023/01/24 06:41:04;;;;;;;7.00;6.05;;;15.90;46.50;;;;;;5035849;28;20283;-65
2023/01/24 06:43:32;;;;;;;6.30;5.70;;;15.90;46.70;;;;;;5035235;28;20307;-65
2023/01/24 06:45:59;;;;;;;6.90;5.72;;;15.90;47.00;;;;;;5034770;28;20306;-69
2023/01/24 06:48:27;;;;;;;7.47;6.47;;;15.90;47.00;;;;;;5037382;28;20541;-64
2023/01/24 06:50:54;;;;;;;7.03;6.32;;;15.90;47.00;;;;;;5035676;28;20657;-61
2023/01/24 06:53:21;;;;;;;6.50;5.90;;;16.00;46.50;;;;;;5035986;28;20270;-63
2023/01/24 06:55:48;;;;;;;7.50;6.53;;;16.00;46.10;;;;;;5035522;28;20195;-62
2023/01/24 06:58:15;;;;;;;6.65;5.95;;;16.00;45.80;;;;;;5035111;28;20216;-63
2023/01/24 07:00:43;;;;;;;6.40;5.80;;;16.00;45.80;;;;;;5035526;28;20199;-62
2023/01/24 07:03:10;;;;;;;7.05;6.40;;;16.00;46.00;;;;;;5037429;28;20228;-63
2023/01/24 07:05:39;;;;;;;6.80;5.70;;;16.00;45.40;;;;;;5033784;28;20558;-62
2023/01/24 07:08:06;;;;;;;6.93;6.22;;;15.90;45.40;;;;;;5033912;28;20647;-63
2023/01/24 07:10:33;;;;;;;7.15;6.45;;;16.00;45.60;;;;;;5034937;28;20200;-63
2023/01/24 07:13:01;;;;;;;7.07;6.20;;;16.00;45.60;;;;;;5033370;28;20686;-63
2023/01/24 07:15:28;;;;;;;7.32;6.63;;;16.00;45.40;;;;;;5034275;28;20219;-63
2023/01/24 07:17:55;;;;;;;6.35;5.75;;;15.90;45.30;;;;;;5033989;28;20246;-63
2023/01/24 07:20:23;;;;;;;7.10;6.40;;;15.90;45.30;;;;;;5034303;28;20204;-63
2023/01/24 07:22:52;;;;;;;6.45;5.85;;;15.90;44.80;;;;;;5038120;28;20271;-64
2023/01/24 07:25:20;;;;;;;7.07;6.38;;;15.90;45.10;;;;;;5040737;28;20206;-64
2023/01/24 07:27:47;;;;;;;7.32;6.50;;;15.90;45.00;;;;;;5041379;28;20196;-65
2023/01/24 07:30:15;;;;;;;7.63;6.22;;;16.00;44.90;;;;;;5034565;28;20256;-63
2023/01/24 07:32:42;;;;;;;7.55;6.85;;;16.00;45.10;;;;;;5034967;28;20208;-64
2023/01/24 07:35:09;;;;;;;6.78;6.07;;;15.90;45.10;;;;;;5033618;28;20203;-64
2023/01/24 07:37:37;;;;;;;7.07;6.38;;;16.00;45.00;;;;;;5033552;28;20210;-63
2023/01/24 07:40:06;;;;;;;6.68;5.97;;;16.00;44.90;;;;;;5033110;28;20232;-64
2023/01/24 07:42:33;;;;;;;6.72;6.03;;;16.00;44.80;;;;;;5034359;28;20192;-64
2023/01/24 07:45:00;;;;;;;6.75;6.03;;;16.00;44.70;;;;;;5034474;28;20192;-64
2023/01/24 07:47:27;;;;;;;7.28;6.57;;;16.00;44.90;;;;;;5034256;28;20192;-64
2023/01/24 07:49:55;;;;;;;6.72;5.97;;;16.00;44.70;;;;;;5034313;28;20195;-64
2023/01/24 07:52:22;;;;;;;6.68;5.93;;;16.00;44.50;;;;;;5034136;28;20658;-63
2023/01/24 07:54:49;;;;;;;6.53;5.93;;;16.00;44.70;;;;;;5033634;28;20212;-64
2023/01/24 07:57:17;;;;;;;6.38;5.78;;;16.10;44.50;;;;;;5033966;28;20188;-64
2023/01/24 07:59:45;;;;;;;7.00;6.30;;;16.10;44.60;;;;;;5034317;28;20180;-64
2023/01/24 08:02:12;;;;;;;6.63;6.00;;;16.10;44.50;;;;;;5033996;28;20192;-64
2023/01/24 08:04:39;;;;;;;7.43;6.07;;;16.10;44.50;;;;;;5032478;28;20278;-63
2023/01/24 08:07:19;;;;;;;7.03;5.60;;;16.10;44.50;;;;;;5033615;28;20215;-63
2023/01/24 08:09:48;;;;;;;6.40;5.80;;;16.10;44.50;;;;;;5033973;28;20620;-63
2023/01/24 08:12:17;;;;;;;6.53;5.85;;;16.10;44.60;;;;;;5032409;28;20291;-64
2023/01/24 08:14:44;;;;;;;7.28;5.95;;;16.10;44.50;;;;;;5031967;28;20323;-63
2023/01/24 08:17:11;;;;;;;6.28;5.65;;;16.10;44.30;;;;;;5032315;28;20642;-63
2023/01/24 08:19:39;;;;;;;6.65;5.75;;;16.20;44.50;;;;;;5033592;28;20669;-64
2023/01/24 08:22:06;;;;;;;6.32;5.70;;;16.20;44.30;;;;;;5033840;28;20543;-63
2023/01/24 08:24:33;;;;;;;5.97;5.38;;;16.20;44.30;;;;;;5036198;28;20622;-63
2023/01/24 08:27:01;;;;;;;7.15;6.00;;;16.20;44.30;;;;;;5037921;28;20665;-63
2023/01/24 08:29:29;;;;;;;6.95;6.10;;;16.20;44.10;;;;;;5037452;28;20196;-63
2023/01/24 08:31:56;;;;;;;7.07;5.82;;;16.20;44.20;;;;;;5036354;28;20223;-63
2023/01/24 08:34:24;;;;;;;6.43;5.70;;;16.20;44.10;;;;;;5037520;28;20219;-64
2023/01/24 08:36:51;;;;;;;7.38;5.80;;;16.20;44.20;;;;;;5036281;28;20207;-63
2023/01/24 08:39:18;;;;;;;6.10;5.50;;;16.20;44.40;;;;;;5036550;28;20581;-63
2023/01/24 08:41:46;;;;;;;7.65;6.32;;;16.20;44.30;;;;;;5037666;28;20275;-63
2023/01/24 08:44:13;;;;;;;6.43;5.70;;;16.10;44.30;;;;;;5036772;28;20247;-64
2023/01/24 08:46:42;;;;;;;7.00;6.30;;;16.20;44.50;;;;;;5037511;28;20681;-63
2023/01/24 08:49:10;;;;;;;6.38;5.78;;;16.10;44.40;;;;;;5037602;28;20202;-63
2023/01/24 08:51:37;;;;;;;6.53;5.60;;;16.10;44.40;;;;;;5037948;28;20211;-64
2023/01/24 08:54:05;;;;;;;6.22;5.63;;;16.10;44.50;;;;;;5037134;28;20603;-64
2023/01/24 08:56:32;;;;;;;5.88;5.28;;;16.10;44.20;;;;;;5035752;28;20709;-63
2023/01/24 08:58:59;;;;;;;6.90;5.78;;;16.20;44.40;;;;;;5037176;28;20200;-63
2023/01/24 09:01:26;;;;;;;6.68;5.90;;;16.10;44.30;;;;;;5036964;28;20203;-64
2023/01/24 09:03:56;;;;;;;6.15;5.55;;;16.10;44.40;;;;;;5036080;28;20227;-64
2023/01/24 09:06:24;;;;;;;6.18;5.57;;;16.10;44.30;;;;;;5036906;28;20204;-64
2023/01/24 09:08:52;;;;;;;6.95;6.25;;;16.10;44.30;;;;;;5036799;28;20184;-63
2023/01/24 09:11:19;;;;;;;6.07;5.47;;;16.20;44.50;;;;;;5035631;28;20763;-64
2023/01/24 09:13:46;;;;;;;6.25;5.40;;;16.20;44.30;;;;;;5035468;28;20220;-64
2023/01/24 09:16:14;;;;;;;6.20;5.60;;;16.20;44.40;;;;;;5035844;28;20196;-64
2023/01/24 09:18:41;;;;;;;6.38;5.55;;;16.20;44.20;;;;;;5036727;28;20560;-64
2023/01/24 09:21:10;;;;;;;6.40;5.80;;;16.20;43.80;;;;;;5036707;28;20204;-62
2023/01/24 09:23:37;;;;;;;7.82;5.95;;;16.20;44.20;;;;;;5035962;28;20216;-65
2023/01/24 09:26:04;;;;;;;6.40;5.70;;;16.30;44.20;;;;;;5036478;28;20271;-63
2023/01/24 09:28:33;;;;;;;7.38;5.60;;;16.30;44.10;;;;;;5036892;28;20676;-63
2023/01/24 09:31:02;;;;;;;6.20;5.45;;;16.30;44.20;;;;;;5036786;28;20696;-63
2023/01/24 09:33:29;;;;;;;6.97;5.80;;;16.30;43.90;;;;;;5035262;28;20764;-63
2023/01/24 09:35:57;;;;;;;6.55;5.53;;;16.30;43.90;;;;;;5035469;28;20195;-63
2023/01/24 09:38:27;;;;;;;5.95;5.13;;;16.40;44.00;;;;;;5034850;28;20290;-63
2023/01/24 09:40:56;;;;;;;6.07;5.13;;;16.30;43.80;;;;;;5035836;28;20563;-63
2023/01/24 09:43:32;;;;;;;6.45;5.63;;;16.40;44.00;;;;;;5035758;28;20254;-63
2023/01/24 09:46:04;;;;;;;6.53;5.65;;;16.40;44.00;;;;;;5034696;28;20200;-63
2023/01/24 09:48:32;;;;;;;6.35;5.75;;;16.40;43.90;;;;;;5034618;28;20200;-63
2023/01/24 09:51:00;;;;;;;6.88;6.25;;;16.40;43.90;;;;;;5034596;28;20196;-63
2023/01/24 09:53:31;;;;;;;6.75;5.60;;;16.50;43.90;;;;;;5034284;28;20281;-63
2023/01/24 09:55:58;;;;;;;6.85;6.15;;;16.40;43.70;;;;;;5036228;28;20596;-63
2023/01/24 09:58:30;;;;;;;6.00;5.40;;;16.40;43.80;;;;;;5034946;28;20222;-63
2023/01/24 10:01:00;;;;;;;6.18;5.57;;;16.50;43.90;;;;;;5036130;28;20176;-62
2023/01/24 10:03:27;;;;;;;6.93;5.90;;;16.50;43.70;;;;;;5035555;28;20208;-63
2023/01/24 10:05:55;;;;;;;6.00;5.25;;;16.50;43.60;;;;;;5034296;28;20200;-63
2023/01/24 10:08:27;;;;;;;6.20;5.60;;;16.50;43.90;;;;;;5034185;28;20747;-63
2023/01/24 10:11:00;;;;;;;5.70;5.20;;;16.60;43.60;;;;;;5035933;28;20187;-64
2023/01/24 10:14:03;;;;;;;6.95;6.03;;;16.60;43.80;;;;;;5035482;28;20208;-62
2023/01/24 10:16:52;;;;;;;5.90;5.30;;;16.60;43.40;;;;;;5014770;28;20262;-63
2023/01/24 10:19:24;;;;;;;6.20;5.60;;;16.60;43.40;;;;;;5035907;28;20222;-63
2023/01/24 10:22:03;;;;;;;7.32;5.78;;;16.60;43.20;;;;;;5035377;28;20180;-63
2023/01/24 10:24:32;;;;;;;6.20;5.60;;;16.70;43.20;;;;;;5033730;28;20219;-63
2023/01/24 10:27:00;;;;;;;6.03;5.13;;;16.60;43.10;;;;;;5035295;28;20662;-63
2023/01/24 10:29:30;;;;;;;5.80;5.07;;;16.70;43.20;;;;;;5035321;28;20184;-63
2023/01/24 10:32:00;;;;;;;6.00;5.40;;;16.60;43.20;;;;;;5035577;28;20564;-63
2023/01/24 10:34:30;;;;;;;5.50;5.00;;;16.60;43.40;;;;;;5033817;28;20227;-68
2023/01/24 10:36:59;;;;;;;6.22;5.28;;;16.60;43.50;;;;;;5036415;28;20188;-64
2023/01/24 10:39:27;;;;;;;5.47;4.82;;;16.60;43.60;;;;;;5034052;28;20658;-64
2023/01/24 10:41:54;;;;;;;5.30;4.80;;;16.60;43.60;;;;;;5035344;28;20311;-64
2023/01/24 10:44:25;;;;;;;5.85;5.25;;;16.60;43.60;;;;;;5035191;28;20208;-65
2023/01/24 10:47:13;;;;;;;5.90;5.30;;;16.50;43.60;;;;;;5035264;28;20196;-64
2023/01/24 10:49:41;;;;;;;5.85;5.20;;;16.50;43.50;;;;;;5035702;28;20219;-64
2023/01/24 10:52:12;;;;;;;5.88;5.28;;;16.50;43.60;;;;;;5034874;28;20200;-65
2023/01/24 10:54:43;;;;;;;5.72;5.18;;;16.50;43.60;;;;;;5035339;28;20704;-64
2023/01/24 10:57:33;;;;;;;6.00;5.40;;;16.50;43.60;;;;;;5034930;28;20558;-64
2023/01/24 11:00:08;;;;;;;5.22;4.72;;;16.50;43.60;;;;;;5034828;28;20183;-65
2023/01/24 11:02:35;;;;;;;5.13;4.63;;;16.50;43.70;;;;;;5034993;28;20207;-63
2023/01/24 11:05:03;;;;;;;5.88;5.32;;;16.60;43.60;;;;;;5034905;28;20196;-62
2023/01/24 11:07:32;;;;;;;5.28;4.78;;;16.60;43.20;;;;;;5034759;28;20199;-61
2023/01/24 11:10:01;;;;;;;5.35;4.85;;;16.60;43.70;;;;;;5033473;28;20216;-63
2023/01/24 11:12:52;;;;;;;5.50;5.00;;;16.60;43.40;;;;;;5034801;28;20609;-63
2023/01/24 11:15:23;;;;;;;5.38;4.88;;;16.70;43.30;;;;;;5034010;28;20277;-63
2023/01/24 11:17:54;;;;;;;5.20;4.70;;;16.70;43.70;;;;;;5034813;28;20723;-63
2023/01/24 11:20:30;;;;;;;5.65;5.03;;;16.70;43.40;;;;;;5035999;28;20694;-63
2023/01/24 11:23:11;;;;;;;5.50;5.00;;;16.80;43.50;;;;;;5035406;28;20211;-63
2023/01/24 11:25:50;;;;;;;6.32;5.70;;;16.70;43.20;;;;;;5033051;28;20200;-63
2023/01/24 11:28:24;;;;;;;5.72;5.13;;;16.70;43.20;;;;;;5034263;28;20268;-63
2023/01/24 11:30:53;;;;;;;6.03;5.18;;;16.80;43.20;;;;;;5032818;28;20203;-64
2023/01/24 11:33:34;;;;;;;5.82;5.22;;;16.80;43.20;;;;;;5034381;28;20216;-63
2023/01/24 11:36:02;;;;;;;5.25;4.63;;;16.80;43.20;;;;;;5035871;28;20173;-64
2023/01/24 11:38:30;;;;;;;5.47;4.97;;;16.80;42.80;;;;;;5035735;28;20284;-64
2023/01/24 11:41:10;;;;;;;5.65;4.65;;;16.90;43.20;;;;;;5034926;28;20203;-63
2023/01/24 11:44:06;;;;;;;5.30;4.80;;;16.90;43.30;;;;;;5035580;28;20697;-63
2023/01/24 11:46:42;;;;;;;5.88;5.30;;;16.90;43.20;;;;;;5032945;28;20199;-63
2023/01/24 11:49:24;;;;;;;5.38;4.88;;;16.90;43.00;;;;;;5032992;28;20195;-63
2023/01/24 11:51:55;;;;;;;4.47;4.07;;;16.90;43.10;;;;;;5034164;28;20180;-63
2023/01/24 11:54:33;;;;;;;5.45;4.88;;;16.90;43.30;;;;;;5033942;28;20219;-63
2023/01/24 11:57:02;;;;;;;5.20;4.70;;;16.90;43.00;;;;;;5033803;28;20639;-63
2023/01/24 11:59:39;;;;;;;5.32;4.38;;;16.90;42.90;;;;;;5032471;28;20204;-63
2023/01/24 12:02:23;;;;;;;5.57;4.60;;;16.90;42.80;;;;;;5033058;28;20587;-63
2023/01/24 12:05:00;;;;;;;5.22;4.72;;;17.00;43.20;;;;;;5033297;28;20314;-64
2023/01/24 12:07:30;;;;;;;5.18;4.68;;;17.00;42.90;;;;;;4633719;22;20601;-63
2023/01/24 12:10:03;;;;;;;4.97;4.47;;;17.00;42.80;;;;;;5034062;28;20230;-64
2023/01/24 12:12:32;;;;;;;5.68;5.10;;;17.00;42.80;;;;;;5032694;28;20208;-63
2023/01/24 12:15:05;;;;;;;5.40;4.90;;;17.00;42.70;;;;;;5033944;28;20218;-64
2023/01/24 12:17:46;;;;;;;5.43;4.93;;;17.00;43.00;;;;;;5033996;28;20285;-64
2023/01/24 12:20:31;;;;;;;4.90;4.45;;;17.00;42.60;;;;;;5035427;28;20196;-64
2023/01/24 12:23:00;;;;;;;6.82;4.78;;;17.00;42.80;;;;;;5033182;28;20282;-63
2023/01/24 12:25:30;;;;;;;4.43;4.03;;;17.00;42.70;;;;;;5033775;28;20180;-63
2023/01/24 12:27:59;;;;;;;4.97;4.45;;;17.00;42.70;;;;;;5032338;28;20289;-63
2023/01/24 12:30:30;;;;;;;4.97;4.47;;;17.00;42.80;;;;;;5033368;28;20188;-63
2023/01/24 12:33:02;;;;;;;5.65;4.47;;;17.00;42.80;;;;;;5033588;28;20219;-63
2023/01/24 12:35:30;;;;;;;5.13;4.57;;;17.00;43.00;;;;;;5033226;28;20200;-63
2023/01/24 12:38:01;;;;;;;5.00;4.50;;;17.00;42.80;;;;;;5033060;28;20294;-63
2023/01/24 12:40:35;;;;;;;6.15;4.93;;;17.00;42.90;;;;;;5031723;28;20595;-64
2023/01/24 12:43:05;;;;;;;5.38;4.88;;;16.90;42.80;;;;;;5031752;28;20219;-64
2023/01/24 12:45:35;;;;;;;5.78;5.07;;;17.00;42.90;;;;;;5032900;28;20194;-64
2023/01/24 12:48:06;;;;;;;5.97;4.68;;;16.90;43.10;;;;;;5032909;28;20202;-64
2023/01/24 12:50:40;;;;;;;5.15;4.65;;;16.90;43.20;;;;;;5031464;28;20677;-64
2023/01/24 12:53:12;;;;;;;5.32;4.60;;;16.80;43.20;;;;;;5031368;28;20219;-64
2023/01/24 12:55:42;;;;;;;5.75;4.65;;;16.90;43.30;;;;;;5031396;28;20292;-64
2023/01/24 12:58:12;;;;;;;5.25;4.75;;;16.80;43.20;;;;;;5032644;28;20654;-64
2023/01/24 13:00:43;;;;;;;5.43;4.90;;;16.80;43.20;;;;;;5031498;28;20200;-64
2023/01/24 13:04:00;;;;;;;5.03;4.45;;;16.80;43.20;;;;;;5032951;28;20223;-64
2023/01/24 13:06:32;;;;;;;5.30;4.68;;;16.80;43.20;;;;;;5032745;28;20204;-65
2023/01/24 13:09:04;;;;;;;5.18;4.68;;;16.80;43.20;;;;;;5032962;28;20207;-64
2023/01/24 13:11:31;;;;;;;5.40;4.57;;;16.80;43.20;;;;;;5033513;28;20196;-65
2023/01/24 13:14:07;;;;;;;5.18;4.68;;;16.80;43.20;;;;;;5034993;28;20219;-66
2023/01/24 13:16:52;;;;;;;5.25;4.75;;;16.90;43.20;;;;;;5036869;28;20184;-65
2023/01/24 13:19:29;;;;;;;5.65;5.05;;;16.90;43.30;;;;;;5036137;28;20216;-65
2023/01/24 13:21:59;;;;;;;6.25;4.72;;;16.90;42.80;;;;;;5034704;28;20184;-65
2023/01/24 13:24:35;;;;;;;5.38;4.88;;;16.90;43.20;;;;;;5035899;28;20650;-64
2023/01/24 13:27:23;;;;;;;5.43;4.80;;;16.80;43.10;;;;;;5034748;28;20195;-64
2023/01/24 13:29:58;;;;;;;5.95;5.35;;;16.90;43.30;;;;;;5035843;28;20188;-64
2023/01/24 13:32:25;;;;;;;6.65;5.00;;;16.90;42.60;;;;;;5034575;28;20573;-65
2023/01/24 13:34:55;;;;;;;6.18;4.97;;;16.90;42.80;;;;;;5034301;28;20216;-65
2023/01/24 13:37:25;;;;;;;6.20;4.97;;;16.90;42.80;;;;;;5035951;28;20189;-65
2023/01/24 13:40:00;;;;;;;5.25;4.75;;;16.90;42.80;;;;;;5035998;28;20558;-64